﻿<?xml version="1.0" encoding="utf-8"?><gpx creator="Garmin Desktop App" version="1.1" xsi:schemaLocation="http://www.topografix.com/GPX/1/1 http://www.topografix.com/GPX/1/1/gpx.xsd http://www.garmin.com/xmlschemas/WaypointExtension/v1 http://www8.garmin.com/xmlschemas/WaypointExtensionv1.xsd http://www.garmin.com/xmlschemas/TrackPointExtension/v1 http://www.garmin.com/xmlschemas/TrackPointExtensionv1.xsd http://www.garmin.com/xmlschemas/GpxExtensions/v3 http://www8.garmin.com/xmlschemas/GpxExtensionsv3.xsd http://www.garmin.com/xmlschemas/ActivityExtension/v1 http://www8.garmin.com/xmlschemas/ActivityExtensionv1.xsd http://www.garmin.com/xmlschemas/AdventuresExtensions/v1 http://www8.garmin.com/xmlschemas/AdventuresExtensionv1.xsd http://www.garmin.com/xmlschemas/PressureExtension/v1 http://www.garmin.com/xmlschemas/PressureExtensionv1.xsd http://www.garmin.com/xmlschemas/TripExtensions/v1 http://www.garmin.com/xmlschemas/TripExtensionsv1.xsd http://www.garmin.com/xmlschemas/TripMetaDataExtensions/v1 http://www.garmin.com/xmlschemas/TripMetaDataExtensionsv1.xsd http://www.garmin.com/xmlschemas/ViaPointTransportationModeExtensions/v1 http://www.garmin.com/xmlschemas/ViaPointTransportationModeExtensionsv1.xsd http://www.garmin.com/xmlschemas/CreationTimeExtension/v1 http://www.garmin.com/xmlschemas/CreationTimeExtensionsv1.xsd http://www.garmin.com/xmlschemas/AccelerationExtension/v1 http://www.garmin.com/xmlschemas/AccelerationExtensionv1.xsd http://www.garmin.com/xmlschemas/PowerExtension/v1 http://www.garmin.com/xmlschemas/PowerExtensionv1.xsd http://www.garmin.com/xmlschemas/VideoExtension/v1 http://www.garmin.com/xmlschemas/VideoExtensionv1.xsd" xmlns="http://www.topografix.com/GPX/1/1" xmlns:xsi="http://www.w3.org/2001/XMLSchema-instance" xmlns:wptx1="http://www.garmin.com/xmlschemas/WaypointExtension/v1" xmlns:gpxtrx="http://www.garmin.com/xmlschemas/GpxExtensions/v3" xmlns:gpxtpx="http://www.garmin.com/xmlschemas/TrackPointExtension/v1" xmlns:gpxx="http://www.garmin.com/xmlschemas/GpxExtensions/v3" xmlns:trp="http://www.garmin.com/xmlschemas/TripExtensions/v1" xmlns:adv="http://www.garmin.com/xmlschemas/AdventuresExtensions/v1" xmlns:prs="http://www.garmin.com/xmlschemas/PressureExtension/v1" xmlns:tmd="http://www.garmin.com/xmlschemas/TripMetaDataExtensions/v1" xmlns:vptm="http://www.garmin.com/xmlschemas/ViaPointTransportationModeExtensions/v1" xmlns:ctx="http://www.garmin.com/xmlschemas/CreationTimeExtension/v1" xmlns:gpxacc="http://www.garmin.com/xmlschemas/AccelerationExtension/v1" xmlns:gpxpx="http://www.garmin.com/xmlschemas/PowerExtension/v1" xmlns:vidx1="http://www.garmin.com/xmlschemas/VideoExtension/v1">

  <metadata>
    <link href="http://www.garmin.com">
      <text>Garmin International</text>
    </link>
    <time>2021-01-19T17:20:31Z</time>
    <bounds maxlat="48.85663996450603" maxlon="1.879870025441051" minlat="48.799479994922876" minlon="1.701509999111295" />
  </metadata>

  <trk>
    <name>RLPLP : GR 11-Etape 2008 - Monfort l’Amaury - Orgerus</name>
    <extensions>
      <gpxx:TrackExtension>
        <gpxx:DisplayColor>DarkGray</gpxx:DisplayColor>
      </gpxx:TrackExtension>
    </extensions>
    <trkseg>
      <trkpt lat="48.802790008485317" lon="1.814810028299689">
        <ele>95</ele>
        <time>2021-01-19T17:14:44Z</time>
      </trkpt>
      <trkpt lat="48.802509969100356" lon="1.814290015026927">
        <ele>93</ele>
        <time>2021-01-19T17:15:43Z</time>
      </trkpt>
      <trkpt lat="48.802060028538108" lon="1.815410004928708">
        <ele>94</ele>
        <time>2021-01-19T17:17:38Z</time>
      </trkpt>
      <trkpt lat="48.80154998973012" lon="1.815540008246899">
        <ele>92</ele>
        <time>2021-01-19T17:18:47Z</time>
      </trkpt>
      <trkpt lat="48.80154998973012" lon="1.816650023683906">
        <ele>91</ele>
        <time>2021-01-19T17:20:25Z</time>
      </trkpt>
      <trkpt lat="48.800079971551895" lon="1.815709993243218">
        <ele>92</ele>
        <time>2021-01-19T17:23:58Z</time>
      </trkpt>
      <trkpt lat="48.799990033730865" lon="1.816609958186746">
        <ele>91</ele>
        <time>2021-01-19T17:25:18Z</time>
      </trkpt>
      <trkpt lat="48.800639966502786" lon="1.821029987186194">
        <ele>92</ele>
        <time>2021-01-19T17:31:56Z</time>
      </trkpt>
      <trkpt lat="48.800759995356202" lon="1.823989972472191">
        <ele>93</ele>
        <time>2021-01-19T17:36:17Z</time>
      </trkpt>
      <trkpt lat="48.800590010359883" lon="1.831499990075827">
        <ele>88</ele>
        <time>2021-01-19T17:47:17Z</time>
      </trkpt>
      <trkpt lat="48.800190025940537" lon="1.839660024270415">
        <ele>82</ele>
        <time>2021-01-19T17:59:16Z</time>
      </trkpt>
      <trkpt lat="48.800109978765249" lon="1.84196999296546">
        <ele>81</ele>
        <time>2021-01-19T18:02:40Z</time>
      </trkpt>
      <trkpt lat="48.799479994922876" lon="1.845189984887838">
        <ele>76</ele>
        <time>2021-01-19T18:07:35Z</time>
      </trkpt>
      <trkpt lat="48.800190025940537" lon="1.847170041874051">
        <ele>76</ele>
        <time>2021-01-19T18:10:53Z</time>
      </trkpt>
      <trkpt lat="48.800469981506467" lon="1.847849981859326">
        <ele>75</ele>
        <time>2021-01-19T18:12:04Z</time>
      </trkpt>
      <trkpt lat="48.800729988142848" lon="1.848449958488345">
        <ele>75</ele>
        <time>2021-01-19T18:13:07Z</time>
      </trkpt>
      <trkpt lat="48.801579996943474" lon="1.848750030621886">
        <ele>80</ele>
        <time>2021-01-19T18:15:03Z</time>
      </trkpt>
      <trkpt lat="48.801749981939793" lon="1.850560018792749">
        <ele>78</ele>
        <time>2021-01-19T18:17:44Z</time>
      </trkpt>
      <trkpt lat="48.802590016275644" lon="1.853299979120493">
        <ele>71</ele>
        <time>2021-01-19T18:22:09Z</time>
      </trkpt>
      <trkpt lat="48.804119965061545" lon="1.855410039424896">
        <ele>72</ele>
        <time>2021-01-19T18:26:45Z</time>
      </trkpt>
      <trkpt lat="48.806270007044077" lon="1.85716001316905">
        <ele>74</ele>
        <time>2021-01-19T18:32:11Z</time>
      </trkpt>
      <trkpt lat="48.810869995504618" lon="1.85935003682971">
        <ele>67</ele>
        <time>2021-01-19T18:42:54Z</time>
      </trkpt>
      <trkpt lat="48.813639963045716" lon="1.861579958349466">
        <ele>64</ele>
        <time>2021-01-19T18:49:53Z</time>
      </trkpt>
      <trkpt lat="48.815109981223941" lon="1.864670030772686">
        <ele>75</ele>
        <time>2021-01-19T18:55:28Z</time>
      </trkpt>
      <trkpt lat="48.816240029409528" lon="1.868190011009574">
        <ele>67</ele>
        <time>2021-01-19T19:01:12Z</time>
      </trkpt>
      <trkpt lat="48.815569980069995" lon="1.869999999180436">
        <ele>62</ele>
        <time>2021-01-19T19:04:14Z</time>
      </trkpt>
      <trkpt lat="48.81671997718513" lon="1.872789999470115">
        <ele>68</ele>
        <time>2021-01-19T19:09:03Z</time>
      </trkpt>
      <trkpt lat="48.818359980359674" lon="1.877489984035492">
        <ele>78</ele>
        <time>2021-01-19T19:16:51Z</time>
      </trkpt>
      <trkpt lat="48.818389987573028" lon="1.879029991105199">
        <ele>80</ele>
        <time>2021-01-19T19:19:06Z</time>
      </trkpt>
      <trkpt lat="48.819209989160299" lon="1.87971998937428">
        <ele>80</ele>
        <time>2021-01-19T19:21:11Z</time>
      </trkpt>
      <trkpt lat="48.826220026239753" lon="1.879870025441051">
        <ele>85</ele>
        <time>2021-01-19T19:36:47Z</time>
      </trkpt>
      <trkpt lat="48.82789003662765" lon="1.87436998821795">
        <ele>66</ele>
        <time>2021-01-19T19:45:39Z</time>
      </trkpt>
      <trkpt lat="48.827909985557199" lon="1.871240017935634">
        <ele>61</ele>
        <time>2021-01-19T19:50:14Z</time>
      </trkpt>
      <trkpt lat="48.828369984403253" lon="1.871479991823435">
        <ele>62</ele>
        <time>2021-01-19T19:51:19Z</time>
      </trkpt>
      <trkpt lat="48.828699979931116" lon="1.870450023561716">
        <ele>69</ele>
        <time>2021-01-19T19:52:59Z</time>
      </trkpt>
      <trkpt lat="48.83006002753973" lon="1.872160015627742">
        <ele>64</ele>
        <time>2021-01-19T19:56:55Z</time>
      </trkpt>
      <trkpt lat="48.831080021336675" lon="1.872550025582314">
        <ele>62</ele>
        <time>2021-01-19T19:59:15Z</time>
      </trkpt>
      <trkpt lat="48.832179978489876" lon="1.873689964413643">
        <ele>56</ele>
        <time>2021-01-19T20:02:13Z</time>
      </trkpt>
      <trkpt lat="48.834920022636652" lon="1.874160021543503">
        <ele>61</ele>
        <time>2021-01-19T20:08:21Z</time>
      </trkpt>
      <trkpt lat="48.837889982387424" lon="1.875579999759793">
        <ele>66</ele>
        <time>2021-01-19T20:15:16Z</time>
      </trkpt>
      <trkpt lat="48.839069986715913" lon="1.875020004808903">
        <ele>78</ele>
        <time>2021-01-19T20:18:01Z</time>
      </trkpt>
      <trkpt lat="48.839980009943247" lon="1.874399995431304">
        <ele>92</ele>
        <time>2021-01-19T20:20:15Z</time>
      </trkpt>
      <trkpt lat="48.839919995516539" lon="1.872550025582314">
        <ele>108</ele>
        <time>2021-01-19T20:22:57Z</time>
      </trkpt>
      <trkpt lat="48.840509997680783" lon="1.870150035247207">
        <ele>117</ele>
        <time>2021-01-19T20:26:42Z</time>
      </trkpt>
      <trkpt lat="48.84031000547111" lon="1.869049994274974">
        <ele>121</ele>
        <time>2021-01-19T20:28:22Z</time>
      </trkpt>
      <trkpt lat="48.841250035911798" lon="1.868339963257313">
        <ele>122</ele>
        <time>2021-01-19T20:30:43Z</time>
      </trkpt>
      <trkpt lat="48.841390013694763" lon="1.867509987205267">
        <ele>125</ele>
        <time>2021-01-19T20:31:58Z</time>
      </trkpt>
      <trkpt lat="48.848840016871691" lon="1.858839998021722">
        <ele>123</ele>
        <time>2021-01-19T20:52:50Z</time>
      </trkpt>
      <trkpt lat="48.846470033749938" lon="1.853559985756874">
        <ele>112</ele>
        <time>2021-01-19T21:02:11Z</time>
      </trkpt>
      <trkpt lat="48.847880037501454" lon="1.851350013166666">
        <ele>103</ele>
        <time>2021-01-19T21:06:42Z</time>
      </trkpt>
      <trkpt lat="48.847969975322485" lon="1.850279979407787">
        <ele>103</ele>
        <time>2021-01-19T21:08:16Z</time>
      </trkpt>
      <trkpt lat="48.848359985277057" lon="1.850660014897585">
        <ele>103</ele>
        <time>2021-01-19T21:09:18Z</time>
      </trkpt>
      <trkpt lat="48.850280027836561" lon="1.848019966855645">
        <ele>116</ele>
        <time>2021-01-19T21:15:04Z</time>
      </trkpt>
      <trkpt lat="48.852229993790388" lon="1.832400038838387">
        <ele>140</ele>
        <time>2021-01-19T21:38:20Z</time>
      </trkpt>
      <trkpt lat="48.850029995664954" lon="1.82965999469161">
        <ele>137</ele>
        <time>2021-01-19T21:44:39Z</time>
      </trkpt>
      <trkpt lat="48.847319958731532" lon="1.82519000954926">
        <ele>134</ele>
        <time>2021-01-19T21:53:33Z</time>
      </trkpt>
      <trkpt lat="48.848759969696403" lon="1.825410034507513">
        <ele>136</ele>
        <time>2021-01-19T21:56:46Z</time>
      </trkpt>
      <trkpt lat="48.848840016871691" lon="1.816520020365715">
        <ele>148</ele>
        <time>2021-01-19T22:09:47Z</time>
      </trkpt>
      <trkpt lat="48.849300015717745" lon="1.815689960494638">
        <ele>153</ele>
        <time>2021-01-19T22:11:22Z</time>
      </trkpt>
      <trkpt lat="48.849149979650974" lon="1.815210012719035">
        <ele>150</ele>
        <time>2021-01-19T22:12:09Z</time>
      </trkpt>
      <trkpt lat="48.849750040099025" lon="1.814529988914728">
        <ele>152</ele>
        <time>2021-01-19T22:13:49Z</time>
      </trkpt>
      <trkpt lat="48.851270014420152" lon="1.813779976218939">
        <ele>160</ele>
        <time>2021-01-19T22:17:22Z</time>
      </trkpt>
      <trkpt lat="48.85663996450603" lon="1.810520002618432">
        <ele>180</ele>
        <time>2021-01-19T22:30:14Z</time>
      </trkpt>
      <trkpt lat="48.854659991338849" lon="1.808029990643263">
        <ele>173</ele>
        <time>2021-01-19T22:35:57Z</time>
      </trkpt>
      <trkpt lat="48.847769983112812" lon="1.803989997133613">
        <ele>127</ele>
        <time>2021-01-19T22:52:22Z</time>
      </trkpt>
      <trkpt lat="48.847630005329847" lon="1.803409969434142">
        <ele>126</ele>
        <time>2021-01-19T22:53:16Z</time>
      </trkpt>
      <trkpt lat="48.848169967532158" lon="1.802080012857914">
        <ele>126</ele>
        <time>2021-01-19T22:55:34Z</time>
      </trkpt>
      <trkpt lat="48.848110036924481" lon="1.801699977368116">
        <ele>126</ele>
        <time>2021-01-19T22:56:08Z</time>
      </trkpt>
      <trkpt lat="48.848389992490411" lon="1.800619969144464">
        <ele>125</ele>
        <time>2021-01-19T22:57:50Z</time>
      </trkpt>
      <trkpt lat="48.848220007494092" lon="1.799459997564554">
        <ele>123</ele>
        <time>2021-01-19T22:59:34Z</time>
      </trkpt>
      <trkpt lat="48.847939968109131" lon="1.798969991505146">
        <ele>122</ele>
        <time>2021-01-19T23:00:31Z</time>
      </trkpt>
      <trkpt lat="48.8482800219208" lon="1.796479979529977">
        <ele>123</ele>
        <time>2021-01-19T23:04:15Z</time>
      </trkpt>
      <trkpt lat="48.849040009081364" lon="1.796760018914938">
        <ele>121</ele>
        <time>2021-01-19T23:05:59Z</time>
      </trkpt>
      <trkpt lat="48.85133002884686" lon="1.794809969142079">
        <ele>125</ele>
        <time>2021-01-19T23:11:49Z</time>
      </trkpt>
      <trkpt lat="48.851979961618781" lon="1.79089997895062">
        <ele>126</ele>
        <time>2021-01-19T23:17:43Z</time>
      </trkpt>
      <trkpt lat="48.851389959454536" lon="1.788369985297322">
        <ele>129</ele>
        <time>2021-01-19T23:21:39Z</time>
      </trkpt>
      <trkpt lat="48.851260039955378" lon="1.77179996855557">
        <ele>120</ele>
        <time>2021-01-19T23:45:54Z</time>
      </trkpt>
      <trkpt lat="48.851849958300591" lon="1.770440004765987">
        <ele>121</ele>
        <time>2021-01-19T23:48:17Z</time>
      </trkpt>
      <trkpt lat="48.851270014420152" lon="1.770140016451478">
        <ele>121</ele>
        <time>2021-01-19T23:49:39Z</time>
      </trkpt>
      <trkpt lat="48.85133002884686" lon="1.765710012987256">
        <ele>120</ele>
        <time>2021-01-19T23:56:08Z</time>
      </trkpt>
      <trkpt lat="48.854320021346211" lon="1.756870038807392">
        <ele>124</ele>
        <time>2021-01-20T00:10:41Z</time>
      </trkpt>
      <trkpt lat="48.850849997252226" lon="1.752489991486073">
        <ele>120</ele>
        <time>2021-01-20T00:20:43Z</time>
      </trkpt>
      <trkpt lat="48.851779969409108" lon="1.750949984416366">
        <ele>117</ele>
        <time>2021-01-20T00:23:46Z</time>
      </trkpt>
      <trkpt lat="48.850510027259588" lon="1.747260019183159">
        <ele>122</ele>
        <time>2021-01-20T00:29:52Z</time>
      </trkpt>
      <trkpt lat="48.852229993790388" lon="1.744059976190329">
        <ele>112</ele>
        <time>2021-01-20T00:35:55Z</time>
      </trkpt>
      <trkpt lat="48.853700011968613" lon="1.739640031009913">
        <ele>120</ele>
        <time>2021-01-20T00:43:10Z</time>
      </trkpt>
      <trkpt lat="48.853869996964931" lon="1.737819984555244">
        <ele>123</ele>
        <time>2021-01-20T00:45:51Z</time>
      </trkpt>
      <trkpt lat="48.852290008217096" lon="1.734980028122664">
        <ele>117</ele>
        <time>2021-01-20T00:51:18Z</time>
      </trkpt>
      <trkpt lat="48.854099996387959" lon="1.728120027109981">
        <ele>113</ele>
        <time>2021-01-20T01:02:07Z</time>
      </trkpt>
      <trkpt lat="48.853760026395321" lon="1.726399976760149">
        <ele>118</ele>
        <time>2021-01-20T01:04:44Z</time>
      </trkpt>
      <trkpt lat="48.854179959744215" lon="1.726339962333441">
        <ele>122</ele>
        <time>2021-01-20T01:05:41Z</time>
      </trkpt>
      <trkpt lat="48.854099996387959" lon="1.72408003360033">
        <ele>109</ele>
        <time>2021-01-20T01:08:59Z</time>
      </trkpt>
      <trkpt lat="48.851950038224459" lon="1.721079982817173">
        <ele>100</ele>
        <time>2021-01-20T01:15:29Z</time>
      </trkpt>
      <trkpt lat="48.85438003577292" lon="1.714639998972416">
        <ele>98</ele>
        <time>2021-01-20T01:26:21Z</time>
      </trkpt>
      <trkpt lat="48.85088000446558" lon="1.715329997241497">
        <ele>100</ele>
        <time>2021-01-20T01:34:12Z</time>
      </trkpt>
      <trkpt lat="48.846700033172965" lon="1.713180039077997">
        <ele>104</ele>
        <time>2021-01-20T01:44:00Z</time>
      </trkpt>
      <trkpt lat="48.843079973012209" lon="1.711719995364547">
        <ele>103</ele>
        <time>2021-01-20T01:52:20Z</time>
      </trkpt>
      <trkpt lat="48.837429983541369" lon="1.708290036767721">
        <ele>108</ele>
        <time>2021-01-20T02:05:52Z</time>
      </trkpt>
      <trkpt lat="48.82862001657486" lon="1.704260017722845">
        <ele>128</ele>
        <time>2021-01-20T02:26:20Z</time>
      </trkpt>
      <trkpt lat="48.828450031578541" lon="1.702030012384057">
        <ele>129</ele>
        <time>2021-01-20T02:29:37Z</time>
      </trkpt>
      <trkpt lat="48.826919998973608" lon="1.701509999111295">
        <ele>130</ele>
        <time>2021-01-20T02:33:06Z</time>
      </trkpt>
    </trkseg>
  </trk>

</gpx>